Time;durP1;ratioP1;P1;durP2;ratioP2;P2;SDS_P1;SDS_P2;PMS_P1;PMS_P2;Temp;Humidity;BMP_temperature;BMP_pressure;BME280_temperature;BME280_humidity;BME280_pressure;Samples;Min_cycle;Max_cycle;Signal;HPM_P1;HPM_P2
2022/06/26 00:01:13;;;;;;;0.20;0.20;;;20.90;99.90;;;;;;5038536;28;20659;-84
2022/06/26 00:03:39;;;;;;;0.10;0.10;;;20.90;99.90;;;;;;5035886;28;20244;-83
2022/06/26 00:06:04;;;;;;;0.10;0.10;;;20.80;99.90;;;;;;5061679;28;20201;-84
2022/06/26 00:08:30;;;;;;;0.17;0.17;;;20.80;99.90;;;;;;5043487;28;20202;-84
2022/06/26 00:10:55;;;;;;;0.30;0.30;;;20.80;99.90;;;;;;5036929;28;20181;-83
2022/06/26 00:13:21;;;;;;;2.17;0.40;;;20.80;99.90;;;;;;5036126;28;20186;-83
2022/06/26 00:15:47;;;;;;;0.17;0.17;;;20.90;99.90;;;;;;5038624;28;20186;-84
2022/06/26 00:18:13;;;;;;;0.20;0.20;;;20.90;99.90;;;;;;5037424;28;20217;-83
2022/06/26 00:20:39;;;;;;;0.30;0.30;;;20.90;99.90;;;;;;5037999;28;20193;-84
2022/06/26 00:23:04;;;;;;;0.40;0.40;;;21.00;99.90;;;;;;5038274;28;20217;-84
2022/06/26 00:25:30;;;;;;;0.20;0.20;;;20.90;99.90;;;;;;5038122;28;20209;-84
2022/06/26 00:27:56;;;;;;;0.30;0.30;;;20.90;99.90;;;;;;5037711;28;20214;-84
2022/06/26 00:30:22;;;;;;;0.30;0.30;;;20.90;99.90;;;;;;5037370;28;20189;-83
2022/06/26 00:32:48;;;;;;;1.80;0.33;;;20.70;99.90;;;;;;5037094;28;20174;-84
2022/06/26 00:35:13;;;;;;;0.60;0.60;;;20.80;99.90;;;;;;5036038;28;20188;-83
2022/06/26 00:37:39;;;;;;;0.43;0.43;;;20.70;99.90;;;;;;5036727;28;20243;-84
2022/06/26 00:40:05;;;;;;;0.63;0.63;;;20.50;99.90;;;;;;5043740;28;20710;-84
2022/06/26 00:42:31;;;;;;;0.67;0.40;;;20.60;99.90;;;;;;5036593;28;20284;-84
2022/06/26 00:44:56;;;;;;;0.77;0.67;;;20.70;99.90;;;;;;5037078;28;20235;-84
2022/06/26 00:47:23;;;;;;;0.23;0.23;;;20.60;99.90;;;;;;5034137;28;20209;-84
2022/06/26 00:49:49;;;;;;;0.30;0.30;;;20.60;99.90;;;;;;5037442;28;20175;-84
2022/06/26 00:52:17;;;;;;;1.87;0.40;;;20.40;99.90;;;;;;5036671;28;20193;-84
2022/06/26 00:54:43;;;;;;;0.40;0.40;;;20.20;99.90;;;;;;5036769;28;20269;-83
2022/06/26 00:57:08;;;;;;;0.50;0.33;;;20.30;99.90;;;;;;5043755;28;20272;-84
2022/06/26 00:59:36;;;;;;;0.37;0.30;;;20.30;99.90;;;;;;5038327;28;20640;-83
2022/06/26 01:02:01;;;;;;;0.30;0.30;;;20.40;99.90;;;;;;5037245;28;20198;-84
2022/06/26 01:04:27;;;;;;;0.20;0.20;;;20.50;99.90;;;;;;5036779;28;20227;-84
2022/06/26 01:06:53;;;;;;;1.77;0.30;;;20.50;99.90;;;;;;5036321;28;20319;-84
2022/06/26 01:09:18;;;;;;;0.37;0.37;;;20.50;99.90;;;;;;5036798;28;20221;-83
2022/06/26 01:11:44;;;;;;;0.20;0.20;;;20.50;99.90;;;;;;5037616;28;20206;-84
2022/06/26 01:14:11;;;;;;;0.20;0.20;;;20.50;99.90;;;;;;5035574;28;20677;-84
2022/06/26 01:16:38;;;;;;;0.33;0.33;;;20.60;99.90;;;;;;5035684;28;20181;-84
2022/06/26 01:19:06;;;;;;;0.23;0.23;;;20.80;99.90;;;;;;5034700;28;20199;-84
2022/06/26 01:21:33;;;;;;;0.30;0.30;;;21.00;99.90;;;;;;5036362;28;20193;-84
2022/06/26 01:23:58;;;;;;;0.20;0.20;;;21.00;99.90;;;;;;5036613;28;20193;-84
2022/06/26 01:26:24;;;;;;;0.13;0.13;;;21.20;99.90;;;;;;5036699;28;20256;-84
2022/06/26 01:28:50;;;;;;;0.20;0.20;;;21.30;99.90;;;;;;5036133;28;20285;-84
2022/06/26 01:31:17;;;;;;;0.20;0.20;;;21.40;99.90;;;;;;5036299;28;20179;-84
2022/06/26 01:33:42;;;;;;;0.50;0.50;;;21.50;99.90;;;;;;5035999;28;20273;-83
2022/06/26 01:36:08;;;;;;;0.30;0.30;;;21.60;99.90;;;;;;5033397;28;20601;-84
2022/06/26 01:38:33;;;;;;;0.30;0.30;;;21.70;99.90;;;;;;5034969;28;20209;-84
2022/06/26 01:40:59;;;;;;;0.30;0.30;;;21.70;99.90;;;;;;5034915;28;20220;-83
2022/06/26 01:43:28;;;;;;;0.30;0.30;;;21.70;99.90;;;;;;5035673;28;20201;-84
2022/06/26 01:45:55;;;;;;;0.30;0.30;;;21.70;99.90;;;;;;5035338;28;20210;-84
2022/06/26 01:48:22;;;;;;;0.27;0.27;;;21.70;99.90;;;;;;5041508;28;20228;-84
2022/06/26 01:50:48;;;;;;;0.40;0.40;;;21.60;99.90;;;;;;5036388;28;20177;-84
2022/06/26 01:53:15;;;;;;;0.23;0.23;;;21.50;99.90;;;;;;5036998;28;20178;-84
2022/06/26 01:55:41;;;;;;;0.50;0.50;;;21.40;99.90;;;;;;5034959;28;20241;-84
2022/06/26 01:58:07;;;;;;;0.50;0.40;;;21.20;99.90;;;;;;5036289;28;20194;-84
2022/06/26 02:00:36;;;;;;;0.40;0.40;;;21.10;99.90;;;;;;5034130;28;20194;-84
2022/06/26 02:03:02;;;;;;;0.40;0.40;;;20.90;99.90;;;;;;5041625;28;20263;-84
2022/06/26 02:05:28;;;;;;;0.40;0.40;;;20.70;99.90;;;;;;5034567;28;20236;-84
2022/06/26 02:07:53;;;;;;;0.37;0.37;;;20.60;99.90;;;;;;5036789;28;20202;-84
2022/06/26 02:15:51;;;;;;;0.50;0.50;;;20.30;99.90;;;;;;5034921;28;20594;-83
2022/06/26 02:18:17;;;;;;;0.37;0.37;;;20.10;99.90;;;;;;5033266;28;20765;-84
2022/06/26 02:20:42;;;;;;;0.20;0.20;;;20.00;99.90;;;;;;5035333;28;20214;-84
2022/06/26 02:23:09;;;;;;;0.43;0.43;;;19.90;99.90;;;;;;5034820;28;20189;-84
2022/06/26 02:25:34;;;;;;;0.40;0.40;;;19.90;99.90;;;;;;5035918;28;20225;-83
2022/06/26 02:28:00;;;;;;;0.40;0.40;;;19.90;99.90;;;;;;5035106;28;20619;-84
2022/06/26 02:30:26;;;;;;;0.40;0.40;;;19.80;99.90;;;;;;5034084;28;20813;-83
2022/06/26 02:32:52;;;;;;;0.20;0.20;;;19.80;99.90;;;;;;5033668;28;20265;-84
2022/06/26 02:35:18;;;;;;;0.30;0.23;;;19.70;99.90;;;;;;5032858;28;20178;-84
2022/06/26 02:37:43;;;;;;;0.10;0.10;;;19.80;99.90;;;;;;5034964;28;20200;-84
2022/06/26 02:40:09;;;;;;;0.30;0.30;;;19.80;99.90;;;;;;5032944;28;20178;-84
2022/06/26 02:42:35;;;;;;;0.17;0.17;;;19.80;99.90;;;;;;5033487;28;20180;-84
2022/06/26 02:45:01;;;;;;;4.80;0.53;;;19.80;99.90;;;;;;5034552;28;20313;-83
2022/06/26 02:47:26;;;;;;;0.10;0.10;;;19.80;99.90;;;;;;5032703;28;20285;-84
2022/06/26 02:49:52;;;;;;;0.53;0.40;;;19.80;99.90;;;;;;5034938;28;20178;-84
2022/06/26 02:52:17;;;;;;;0.27;0.27;;;19.80;99.90;;;;;;5034642;28;20209;-83
2022/06/26 02:54:43;;;;;;;0.10;0.10;;;19.80;99.90;;;;;;5035794;28;20667;-83
2022/06/26 02:57:08;;;;;;;0.23;0.23;;;19.90;99.90;;;;;;5036702;28;20739;-83
2022/06/26 02:59:34;;;;;;;0.20;0.20;;;20.00;99.90;;;;;;5035684;28;20203;-84
2022/06/26 03:02:00;;;;;;;3.60;0.20;;;19.90;99.90;;;;;;5034781;28;20188;-83
2022/06/26 03:04:25;;;;;;;0.13;0.13;;;19.90;99.90;;;;;;5033623;28;20183;-84
2022/06/26 03:06:51;;;;;;;0.33;0.33;;;20.00;99.90;;;;;;5035959;28;20202;-84
2022/06/26 03:09:16;;;;;;;0.40;0.40;;;19.90;99.90;;;;;;5038162;28;20240;-83
2022/06/26 03:11:42;;;;;;;1.27;0.30;;;19.60;99.90;;;;;;5035077;28;20174;-83
2022/06/26 03:14:08;;;;;;;0.27;0.27;;;19.70;99.90;;;;;;5035698;28;20178;-84
2022/06/26 03:16:34;;;;;;;0.20;0.20;;;19.80;99.90;;;;;;5035370;28;20649;-84
2022/06/26 03:19:00;;;;;;;0.10;0.10;;;19.90;99.90;;;;;;5034593;28;20210;-84
2022/06/26 03:21:26;;;;;;;0.30;0.30;;;19.90;99.90;;;;;;5034015;28;20879;-84
2022/06/26 03:24:03;;;;;;;0.27;0.27;;;19.90;99.90;;;;;;5034292;28;20216;-84
2022/06/26 03:26:37;;;;;;;0.10;0.10;;;19.90;99.90;;;;;;5035331;28;20190;-84
2022/06/26 03:29:05;;;;;;;0.77;0.20;;;19.90;99.90;;;;;;5035292;28;20217;-84
2022/06/26 03:31:30;;;;;;;0.20;0.20;;;19.90;99.90;;;;;;5040471;28;20302;-84
2022/06/26 03:33:56;;;;;;;0.10;0.10;;;19.90;99.90;;;;;;5035672;28;20273;-84
2022/06/26 03:36:23;;;;;;;0.20;0.20;;;20.00;99.90;;;;;;5040021;28;20838;-83
2022/06/26 03:38:50;;;;;;;0.50;0.20;;;20.10;99.90;;;;;;5035324;28;20213;-83
2022/06/26 03:41:15;;;;;;;0.40;0.40;;;20.50;99.90;;;;;;5034004;28;20667;-84
2022/06/26 03:43:41;;;;;;;0.20;0.20;;;21.50;99.90;;;;;;5033592;28;20207;-83
2022/06/26 03:46:07;;;;;;;0.40;0.40;;;21.90;99.90;;;;;;5033292;28;20217;-84
2022/06/26 03:48:33;;;;;;;0.20;0.20;;;21.40;99.90;;;;;;5034484;28;20198;-83
2022/06/26 03:50:59;;;;;;;0.10;0.10;;;21.10;99.90;;;;;;5032763;28;20185;-83
2022/06/26 03:53:24;;;;;;;0.60;0.60;;;21.00;99.90;;;;;;5032050;28;20213;-83
2022/06/26 03:55:51;;;;;;;0.20;0.20;;;21.50;99.90;;;;;;5033038;28;20193;-83
2022/06/26 03:58:16;;;;;;;0.20;0.20;;;21.60;99.90;;;;;;5035861;28;20686;-84
2022/06/26 04:00:42;;;;;;;0.20;0.20;;;21.60;99.90;;;;;;5035115;28;20192;-84
2022/06/26 04:03:08;;;;;;;0.20;0.20;;;22.30;99.90;;;;;;5034775;28;20671;-84
2022/06/26 04:05:35;;;;;;;1.13;0.50;;;21.90;99.90;;;;;;5033183;28;20344;-84
2022/06/26 04:08:01;;;;;;;0.30;0.30;;;21.50;99.90;;;;;;5032343;28;20206;-84
2022/06/26 04:10:27;;;;;;;0.20;0.20;;;21.30;99.90;;;;;;5035029;28;20179;-84
2022/06/26 04:12:53;;;;;;;0.10;0.10;;;21.10;99.90;;;;;;5031701;28;20236;-84
2022/06/26 04:15:19;;;;;;;0.17;0.17;;;21.00;99.90;;;;;;5033639;28;20181;-84
2022/06/26 04:17:45;;;;;;;0.20;0.20;;;21.00;99.90;;;;;;5034389;28;20201;-84
2022/06/26 04:20:11;;;;;;;0.20;0.20;;;21.00;99.90;;;;;;5033532;28;20250;-84
2022/06/26 04:22:37;;;;;;;0.30;0.30;;;21.10;99.90;;;;;;5043357;28;20286;-84
2022/06/26 04:25:04;;;;;;;0.20;0.20;;;21.00;99.90;;;;;;5035639;28;20376;-83
2022/06/26 04:27:30;;;;;;;0.20;0.20;;;21.10;99.90;;;;;;5037646;28;20206;-84
2022/06/26 04:29:55;;;;;;;0.20;0.20;;;21.20;99.90;;;;;;5037049;28;20182;-84
2022/06/26 04:32:21;;;;;;;0.20;0.20;;;21.30;99.90;;;;;;5035897;28;20746;-84
2022/06/26 04:34:46;;;;;;;0.20;0.20;;;21.20;99.90;;;;;;5059325;28;20628;-84
2022/06/26 04:37:12;;;;;;;0.33;0.33;;;21.10;99.90;;;;;;5038259;28;20185;-83
2022/06/26 04:39:37;;;;;;;0.20;0.20;;;21.00;99.90;;;;;;5035295;28;20281;-84
2022/06/26 04:42:03;;;;;;;0.10;0.10;;;21.00;99.90;;;;;;5037850;28;20265;-84
2022/06/26 04:44:29;;;;;;;2.67;0.43;;;21.00;99.90;;;;;;5035842;28;20206;-84
2022/06/26 04:46:54;;;;;;;0.10;0.10;;;20.90;99.90;;;;;;5039108;28;20283;-85
2022/06/26 04:49:20;;;;;;;0.20;0.20;;;20.80;99.90;;;;;;5037404;28;20216;-85
2022/06/26 04:51:46;;;;;;;0.20;0.20;;;20.80;99.90;;;;;;5038921;28;20206;-85
2022/06/26 04:54:12;;;;;;;0.30;0.30;;;20.80;99.90;;;;;;5035280;28;21174;-85
2022/06/26 04:56:38;;;;;;;0.20;0.20;;;20.80;99.90;;;;;;5037848;28;20202;-84
2022/06/26 04:59:05;;;;;;;0.20;0.20;;;20.80;99.90;;;;;;5036753;28;20287;-84
2022/06/26 05:01:31;;;;;;;0.40;0.40;;;20.80;99.90;;;;;;5035004;28;20185;-85
2022/06/26 05:03:58;;;;;;;0.20;0.20;;;20.90;99.90;;;;;;5035578;28;20186;-85
2022/06/26 05:06:24;;;;;;;0.20;0.20;;;20.90;99.90;;;;;;5037688;28;20209;-85
2022/06/26 05:08:50;;;;;;;0.10;0.10;;;20.90;99.90;;;;;;5041947;28;20202;-85
2022/06/26 05:11:15;;;;;;;0.60;0.20;;;21.00;99.90;;;;;;5037971;28;20194;-83
2022/06/26 05:13:41;;;;;;;0.20;0.20;;;21.20;99.90;;;;;;5038404;28;20243;-84
2022/06/26 05:16:07;;;;;;;0.20;0.20;;;21.30;99.90;;;;;;5037511;28;20189;-83
2022/06/26 05:18:32;;;;;;;0.10;0.10;;;21.40;99.90;;;;;;5037735;28;20732;-83
2022/06/26 05:20:58;;;;;;;0.10;0.10;;;21.40;99.90;;;;;;5036699;28;20195;-83
2022/06/26 05:23:27;;;;;;;0.10;0.10;;;21.60;99.90;;;;;;5034921;28;20189;-83
2022/06/26 05:25:52;;;;;;;1.70;0.40;;;21.60;99.90;;;;;;5042457;28;20209;-83
2022/06/26 05:28:18;;;;;;;0.10;0.10;;;21.70;99.90;;;;;;5036401;28;20210;-83
2022/06/26 05:30:44;;;;;;;0.20;0.20;;;21.80;99.90;;;;;;5035933;28;20289;-83
2022/06/26 05:33:10;;;;;;;0.20;0.20;;;22.00;99.90;;;;;;5035137;28;20269;-83
2022/06/26 05:35:35;;;;;;;1.07;0.50;;;22.20;99.90;;;;;;5037205;28;20183;-83
2022/06/26 05:38:01;;;;;;;0.20;0.20;;;22.00;99.90;;;;;;5035705;28;20213;-83
2022/06/26 05:40:27;;;;;;;0.20;0.20;;;22.20;99.90;;;;;;5035083;28;20194;-83
2022/06/26 05:42:54;;;;;;;0.30;0.30;;;22.30;99.90;;;;;;5038614;28;20197;-82
2022/06/26 05:45:20;;;;;;;2.50;0.33;;;22.20;99.90;;;;;;5036246;28;20205;-82
2022/06/26 05:47:46;;;;;;;1.03;0.80;;;22.30;99.90;;;;;;5035252;28;20267;-83
2022/06/26 05:50:11;;;;;;;0.20;0.20;;;22.10;99.90;;;;;;5037262;28;20192;-82
2022/06/26 05:52:37;;;;;;;0.20;0.20;;;22.00;99.90;;;;;;5038072;28;20232;-82
2022/06/26 05:55:03;;;;;;;0.27;0.27;;;21.90;99.90;;;;;;5039653;28;20217;-82
2022/06/26 05:57:28;;;;;;;1.03;0.30;;;21.90;99.90;;;;;;5036489;28;20554;-82
2022/06/26 05:59:54;;;;;;;0.27;0.23;;;21.90;99.90;;;;;;5034546;28;20221;-82
2022/06/26 06:02:20;;;;;;;0.20;0.20;;;21.80;99.90;;;;;;5040821;28;20204;-82
2022/06/26 06:04:45;;;;;;;0.40;0.40;;;21.80;99.90;;;;;;5041659;28;20193;-82
2022/06/26 06:07:11;;;;;;;0.20;0.20;;;21.70;99.90;;;;;;5044310;28;20237;-82
2022/06/26 06:09:36;;;;;;;0.30;0.30;;;21.50;99.90;;;;;;5045931;28;20233;-82
2022/06/26 06:12:02;;;;;;;0.27;0.27;;;21.40;99.90;;;;;;5046964;28;20189;-81
2022/06/26 06:14:28;;;;;;;0.13;0.13;;;21.50;99.90;;;;;;5046549;28;20277;-82
2022/06/26 06:16:53;;;;;;;0.37;0.37;;;21.50;99.90;;;;;;5061562;28;20224;-82
2022/06/26 06:19:19;;;;;;;0.20;0.20;;;21.40;99.90;;;;;;5039880;28;20209;-82
2022/06/26 06:21:45;;;;;;;0.23;0.20;;;21.40;99.90;;;;;;5042803;28;20257;-82
2022/06/26 06:24:10;;;;;;;0.37;0.33;;;21.40;99.90;;;;;;5047678;28;20671;-82
2022/06/26 06:26:37;;;;;;;0.30;0.30;;;21.60;99.90;;;;;;5040694;28;20202;-82
2022/06/26 06:29:03;;;;;;;0.27;0.27;;;21.80;99.90;;;;;;5040221;28;20328;-82
2022/06/26 06:31:29;;;;;;;0.20;0.20;;;22.20;99.90;;;;;;5040151;28;20319;-82
2022/06/26 06:33:54;;;;;;;0.40;0.40;;;22.30;99.90;;;;;;5040847;28;20210;-82
2022/06/26 06:36:20;;;;;;;0.40;0.30;;;22.40;99.90;;;;;;5040417;28;20213;-82
2022/06/26 06:38:45;;;;;;;0.10;0.10;;;22.90;99.90;;;;;;5039082;28;20210;-82
2022/06/26 06:41:11;;;;;;;0.30;0.30;;;23.00;99.90;;;;;;5046227;28;20228;-82
2022/06/26 06:43:37;;;;;;;0.20;0.20;;;23.20;99.90;;;;;;5045355;28;20201;-82
2022/06/26 06:46:03;;;;;;;0.30;0.30;;;22.70;99.90;;;;;;5040942;28;20236;-82
2022/06/26 06:48:29;;;;;;;0.20;0.20;;;22.70;99.90;;;;;;5040028;28;20212;-81
2022/06/26 06:50:54;;;;;;;0.30;0.30;;;22.90;99.90;;;;;;5040284;28;20589;-82
2022/06/26 06:53:20;;;;;;;0.30;0.30;;;23.20;99.90;;;;;;5038513;28;20241;-82
2022/06/26 06:55:46;;;;;;;0.20;0.20;;;23.60;99.90;;;;;;5039698;28;20182;-82
2022/06/26 06:58:12;;;;;;;0.27;0.27;;;23.70;99.90;;;;;;5042335;28;20205;-82
2022/06/26 07:00:38;;;;;;;0.10;0.10;;;23.60;99.90;;;;;;5038546;28;20193;-82
2022/06/26 07:03:05;;;;;;;0.20;0.20;;;23.50;99.90;;;;;;5038878;28;20186;-82
2022/06/26 07:05:31;;;;;;;0.10;0.10;;;23.60;99.90;;;;;;5040421;28;20193;-82
2022/06/26 07:07:57;;;;;;;0.30;0.20;;;23.80;99.90;;;;;;5044898;28;20209;-81
2022/06/26 07:10:23;;;;;;;0.20;0.20;;;23.90;99.90;;;;;;5037334;28;20185;-83
2022/06/26 07:12:54;;;;;;;0.17;0.17;;;24.00;99.90;;;;;;5035307;28;20265;-83
2022/06/26 07:15:20;;;;;;;0.20;0.20;;;23.90;99.90;;;;;;5034864;28;20177;-83
2022/06/26 07:17:45;;;;;;;0.27;0.27;;;24.10;99.90;;;;;;5035950;28;20697;-83
2022/06/26 07:20:11;;;;;;;0.20;0.20;;;24.10;99.90;;;;;;5038851;28;20194;-82
2022/06/26 07:22:37;;;;;;;0.83;0.83;;;24.30;99.90;;;;;;5038228;28;20328;-82
2022/06/26 07:25:02;;;;;;;0.10;0.10;;;24.40;99.90;;;;;;5037451;28;20563;-82
2022/06/26 07:27:28;;;;;;;0.30;0.30;;;24.60;99.90;;;;;;5038608;28;20191;-82
2022/06/26 07:29:54;;;;;;;0.30;0.30;;;24.70;99.90;;;;;;5035394;28;20174;-82
2022/06/26 07:32:19;;;;;;;0.20;0.20;;;24.60;99.90;;;;;;5035282;28;20189;-82
2022/06/26 07:34:45;;;;;;;0.13;0.13;;;24.80;99.90;;;;;;5036022;28;20241;-82
2022/06/26 07:37:11;;;;;;;0.20;0.20;;;24.90;99.90;;;;;;5037210;28;20446;-82
2022/06/26 07:39:36;;;;;;;0.10;0.10;;;25.00;99.90;;;;;;5037953;28;20198;-82
2022/06/26 07:42:02;;;;;;;0.33;0.33;;;25.20;99.90;;;;;;5034826;28;20886;-83
2022/06/26 07:44:28;;;;;;;0.97;0.97;;;25.20;99.90;;;;;;5039564;28;20198;-82
2022/06/26 07:46:54;;;;;;;0.20;0.20;;;24.70;99.90;;;;;;5036070;28;20232;-82
2022/06/26 07:49:19;;;;;;;0.20;0.20;;;24.80;99.90;;;;;;5039828;28;20331;-83
2022/06/26 07:51:45;;;;;;;0.10;0.10;;;24.90;99.90;;;;;;5037125;28;20265;-82
2022/06/26 07:54:10;;;;;;;0.23;0.23;;;25.10;99.90;;;;;;5036705;28;20232;-82
2022/06/26 07:56:37;;;;;;;0.23;0.20;;;25.20;99.90;;;;;;5040827;28;20178;-83
2022/06/26 07:59:03;;;;;;;0.30;0.30;;;25.50;99.90;;;;;;5040007;28;20562;-82
2022/06/26 08:01:28;;;;;;;0.10;0.10;;;25.40;99.90;;;;;;5041393;28;20222;-82
2022/06/26 08:03:54;;;;;;;0.40;0.40;;;25.50;99.90;;;;;;5042268;28;20190;-82
2022/06/26 08:06:20;;;;;;;0.53;0.20;;;25.70;99.90;;;;;;5042519;28;20198;-82
2022/06/26 08:08:46;;;;;;;0.30;0.30;;;25.80;99.90;;;;;;5036261;28;20213;-83
2022/06/26 08:11:11;;;;;;;0.40;0.40;;;25.90;99.90;;;;;;5036014;28;20182;-82
2022/06/26 08:13:37;;;;;;;0.20;0.20;;;26.00;99.90;;;;;;5042102;28;20647;-82
2022/06/26 08:16:03;;;;;;;0.20;0.20;;;26.10;99.90;;;;;;5036252;28;20189;-82
2022/06/26 08:18:28;;;;;;;0.20;0.20;;;26.20;99.90;;;;;;5036633;28;20209;-83
2022/06/26 08:20:54;;;;;;;0.30;0.20;;;26.50;99.90;;;;;;5038479;28;20186;-83
2022/06/26 08:23:20;;;;;;;0.20;0.20;;;26.70;99.90;;;;;;5036514;28;20190;-83
2022/06/26 08:25:45;;;;;;;0.63;0.30;;;26.80;99.90;;;;;;5038345;28;20293;-83
2022/06/26 08:28:11;;;;;;;0.10;0.10;;;26.90;99.90;;;;;;5036260;28;20216;-83
2022/06/26 08:30:37;;;;;;;0.20;0.20;;;26.90;99.90;;;;;;5038625;28;20577;-83
2022/06/26 08:33:02;;;;;;;0.20;0.20;;;26.90;99.90;;;;;;5037149;28;20217;-83
2022/06/26 08:35:28;;;;;;;0.40;0.40;;;27.20;99.90;;;;;;5034670;28;20183;-83
2022/06/26 08:37:55;;;;;;;0.20;0.20;;;27.30;99.90;;;;;;5037742;28;20264;-83
2022/06/26 08:40:21;;;;;;;0.20;0.20;;;27.50;99.90;;;;;;5034751;28;20189;-83
2022/06/26 08:42:49;;;;;;;0.63;0.33;;;27.60;99.90;;;;;;5037370;28;20606;-83
2022/06/26 08:45:17;;;;;;;0.30;0.30;;;27.70;99.90;;;;;;5034085;28;20178;-83
2022/06/26 08:47:47;;;;;;;0.20;0.20;;;27.60;99.90;;;;;;5035682;28;20209;-83
2022/06/26 08:50:12;;;;;;;0.30;0.30;;;27.60;99.90;;;;;;5036352;28;21030;-83
2022/06/26 08:52:39;;;;;;;0.20;0.20;;;27.70;99.90;;;;;;5035432;28;20178;-83
2022/06/26 08:55:06;;;;;;;0.10;0.10;;;27.70;99.90;;;;;;5036105;28;21093;-82
2022/06/26 08:57:33;;;;;;;0.30;0.30;;;27.60;99.90;;;;;;5036176;28;20190;-83
2022/06/26 08:59:59;;;;;;;0.33;0.33;;;27.70;99.90;;;;;;5034895;28;20190;-83
2022/06/26 09:02:25;;;;;;;0.20;0.20;;;27.10;99.90;;;;;;5033176;28;20186;-83
2022/06/26 09:04:50;;;;;;;0.20;0.20;;;27.10;99.90;;;;;;5035822;28;20182;-83
2022/06/26 09:07:17;;;;;;;0.57;0.30;;;27.30;99.90;;;;;;5036368;28;20225;-83
2022/06/26 09:09:42;;;;;;;0.30;0.30;;;27.50;99.90;;;;;;5035382;28;20186;-83
2022/06/26 09:12:08;;;;;;;0.20;0.20;;;27.80;99.90;;;;;;5043358;28;20185;-83
2022/06/26 09:14:34;;;;;;;0.20;0.20;;;28.00;99.90;;;;;;5035052;28;20624;-83
2022/06/26 09:17:00;;;;;;;0.30;0.30;;;27.70;99.90;;;;;;5036796;28;20248;-83
2022/06/26 09:19:30;;;;;;;0.33;0.33;;;27.80;99.90;;;;;;5036274;28;20675;-83
2022/06/26 09:22:15;;;;;;;0.20;0.20;;;28.00;99.90;;;;;;5035995;28;20186;-83
2022/06/26 09:24:53;;;;;;;0.30;0.30;;;27.80;99.90;;;;;;5033157;28;20209;-83
2022/06/26 09:27:21;;;;;;;0.30;0.30;;;27.80;99.90;;;;;;5036915;28;20663;-83
2022/06/26 09:29:56;;;;;;;0.30;0.30;;;27.90;99.90;;;;;;5033641;28;20173;-82
2022/06/26 09:32:23;;;;;;;0.37;0.37;;;28.00;99.90;;;;;;5033810;28;20185;-83
2022/06/26 09:34:54;;;;;;;0.30;0.30;;;28.00;99.90;;;;;;5033742;28;20235;-83
2022/06/26 09:37:22;;;;;;;0.30;0.30;;;27.90;99.90;;;;;;5035727;28;20206;-83
2022/06/26 09:39:47;;;;;;;0.27;0.27;;;27.90;99.90;;;;;;5034433;28;20192;-83
2022/06/26 09:42:19;;;;;;;0.40;0.40;;;27.90;99.90;;;;;;5035144;28;20186;-83
2022/06/26 09:44:47;;;;;;;0.33;0.33;;;28.00;99.90;;;;;;5034621;28;20204;-83
2022/06/26 09:47:25;;;;;;;0.20;0.20;;;28.20;99.90;;;;;;5034638;28;20206;-83
2022/06/26 09:49:52;;;;;;;0.40;0.40;;;28.40;99.90;;;;;;5034474;28;20277;-83
2022/06/26 09:52:20;;;;;;;0.30;0.30;;;28.40;99.90;;;;;;5036949;28;20742;-83
2022/06/26 09:54:47;;;;;;;0.27;0.27;;;28.00;99.90;;;;;;5056090;28;20183;-83
2022/06/26 09:57:14;;;;;;;0.33;0.33;;;27.50;99.90;;;;;;5033084;28;20192;-83
2022/06/26 09:59:40;;;;;;;0.20;0.20;;;27.50;99.90;;;;;;5035819;28;20240;-83
2022/06/26 10:07:41;;;;;;;0.40;0.40;;;28.50;99.90;;;;;;5034281;28;20286;-83
2022/06/26 10:10:07;;;;;;;0.40;0.40;;;28.80;99.90;;;;;;5035047;28;20193;-83
2022/06/26 10:12:34;;;;;;;0.30;0.22;;;28.60;99.90;;;;;;5035557;28;20188;-84
2022/06/26 10:15:00;;;;;;;0.20;0.20;;;28.70;99.90;;;;;;5036356;28;20190;-82
2022/06/26 10:17:47;;;;;;;3.47;2.77;;;28.70;99.90;;;;;;5035829;28;20228;-83
2022/06/26 10:20:19;;;;;;;0.47;0.43;;;28.90;99.90;;;;;;5056416;28;20354;-83
2022/06/26 10:22:45;;;;;;;0.30;0.30;;;29.00;99.90;;;;;;5057251;28;20182;-83
2022/06/26 10:25:21;;;;;;;3.00;0.40;;;29.20;99.90;;;;;;5035170;28;20194;-83
2022/06/26 10:27:47;;;;;;;0.20;0.20;;;29.50;99.90;;;;;;5057176;28;20217;-83
2022/06/26 10:30:18;;;;;;;1.10;1.00;;;29.80;99.90;;;;;;5034111;28;20208;-83
2022/06/26 10:32:44;;;;;;;0.20;0.20;;;29.80;99.90;;;;;;5034338;28;20196;-83
2022/06/26 10:35:11;;;;;;;0.30;0.30;;;30.10;99.90;;;;;;5033335;28;20178;-83
2022/06/26 10:37:51;;;;;;;0.20;0.20;;;30.00;99.90;;;;;;5035120;28;21010;-83
2022/06/26 10:43:13;;;;;;;0.10;0.10;;;30.10;99.90;;;;;;5035885;28;20208;-83
2022/06/26 10:45:40;;;;;;;0.20;0.20;;;30.30;99.90;;;;;;5035645;28;20888;-83
2022/06/26 10:48:16;;;;;;;0.30;0.30;;;30.70;99.90;;;;;;5035625;28;20201;-83
2022/06/26 10:50:45;;;;;;;0.52;0.30;;;31.20;99.90;;;;;;5033000;28;20198;-83
2022/06/26 10:53:21;;;;;;;0.20;0.20;;;31.00;99.90;;;;;;5031374;28;20201;-83
2022/06/26 10:55:54;;;;;;;0.50;0.28;;;31.00;99.90;;;;;;5057433;28;20285;-83
2022/06/26 10:58:19;;;;;;;0.30;0.30;;;30.80;99.90;;;;;;5054497;28;20251;-83
2022/06/26 11:00:45;;;;;;;0.15;0.15;;;30.70;99.90;;;;;;5032981;28;20174;-83
2022/06/26 11:03:16;;;;;;;0.10;0.10;;;30.70;99.90;;;;;;5032209;28;22089;-83
2022/06/26 11:05:54;;;;;;;0.50;0.50;;;30.60;99.90;;;;;;5033466;28;20271;-82
2022/06/26 11:08:30;;;;;;;0.20;0.20;;;30.20;99.90;;;;;;5034105;28;20205;-83
2022/06/26 11:11:01;;;;;;;0.22;0.22;;;30.30;99.90;;;;;;5050361;28;20243;-83
2022/06/26 11:13:27;;;;;;;0.20;0.20;;;30.40;99.90;;;;;;5033293;28;20231;-83
2022/06/26 11:15:52;;;;;;;0.50;0.50;;;30.50;99.90;;;;;;5033967;28;20186;-83
2022/06/26 11:18:18;;;;;;;0.20;0.20;;;30.20;99.90;;;;;;5031908;28;20717;-83
2022/06/26 11:20:52;;;;;;;0.38;0.30;;;30.40;99.90;;;;;;5033574;28;20686;-83
2022/06/26 11:23:22;;;;;;;0.30;0.30;;;30.40;99.90;;;;;;5031181;28;20261;-83
2022/06/26 11:25:52;;;;;;;0.38;0.38;;;30.50;99.90;;;;;;5033050;28;20193;-83
2022/06/26 11:28:18;;;;;;;0.40;0.40;;;30.40;99.90;;;;;;5027094;28;20201;-83
2022/06/26 11:30:46;;;;;;;0.50;0.50;;;30.40;99.90;;;;;;5034114;28;20182;-83
2022/06/26 11:33:12;;;;;;;0.10;0.10;;;30.40;99.90;;;;;;5041869;28;20193;-83
2022/06/26 11:35:38;;;;;;;0.30;0.30;;;30.30;99.90;;;;;;5041307;28;20239;-83
2022/06/26 11:38:15;;;;;;;0.40;0.40;;;30.30;99.90;;;;;;5037601;28;20206;-83
2022/06/26 11:40:42;;;;;;;1.35;1.35;;;30.00;99.90;;;;;;5038455;28;20267;-83
2022/06/26 11:43:10;;;;;;;0.40;0.38;;;29.90;99.90;;;;;;5036723;28;20193;-83
2022/06/26 11:45:37;;;;;;;0.20;0.20;;;29.80;99.90;;;;;;5037413;28;20177;-83
2022/06/26 11:48:07;;;;;;;0.20;0.20;;;29.70;99.90;;;;;;5035838;28;20224;-83
2022/06/26 11:50:35;;;;;;;0.43;0.40;;;29.80;99.90;;;;;;5038492;28;20247;-83
2022/06/26 11:53:03;;;;;;;0.30;0.30;;;29.60;99.90;;;;;;5036855;28;20186;-83
2022/06/26 11:55:30;;;;;;;0.22;0.22;;;29.50;99.90;;;;;;5037707;28;20322;-83
2022/06/26 11:57:55;;;;;;;0.20;0.20;;;29.20;99.90;;;;;;5038562;28;20252;-83
2022/06/26 12:00:22;;;;;;;0.50;0.40;;;29.10;99.90;;;;;;5040097;28;20186;-83
2022/06/26 12:02:49;;;;;;;0.43;0.43;;;29.00;99.90;;;;;;5035743;28;20656;-83
2022/06/26 12:05:26;;;;;;;0.50;0.50;;;28.70;99.90;;;;;;5043856;28;20222;-83
2022/06/26 12:07:53;;;;;;;0.30;0.30;;;28.50;99.90;;;;;;5039157;28;20213;-82
2022/06/26 12:10:52;;;;;;;0.30;0.30;;;28.40;99.90;;;;;;5037900;28;20648;-82
2022/06/26 12:13:36;;;;;;;0.45;0.45;;;28.50;99.90;;;;;;5041890;28;20273;-83
2022/06/26 12:16:06;;;;;;;0.40;0.40;;;28.30;99.90;;;;;;5037671;28;20536;-83
2022/06/26 12:18:37;;;;;;;0.30;0.30;;;28.20;99.90;;;;;;5038735;28;20201;-82
2022/06/26 12:21:13;;;;;;;0.30;0.30;;;28.20;99.90;;;;;;5037405;28;20182;-83
2022/06/26 12:23:44;;;;;;;0.30;0.30;;;28.40;99.90;;;;;;5037968;28;20178;-83
2022/06/26 12:26:11;;;;;;;0.30;0.30;;;28.50;99.90;;;;;;5037861;28;20288;-83
2022/06/26 12:28:51;;;;;;;2.07;1.90;;;28.40;99.90;;;;;;5037502;28;20193;-82
2022/06/26 12:31:19;;;;;;;1.07;0.50;;;28.50;99.90;;;;;;5044369;28;20177;-83
2022/06/26 12:33:47;;;;;;;0.50;0.50;;;28.40;99.90;;;;;;5059889;28;20197;-82
2022/06/26 12:36:13;;;;;;;0.70;0.50;;;28.10;99.90;;;;;;5039315;28;20197;-82
2022/06/26 12:38:40;;;;;;;0.43;0.43;;;27.90;99.90;;;;;;5036229;28;20229;-83
2022/06/26 12:41:16;;;;;;;0.43;0.30;;;27.90;99.90;;;;;;5042931;28;20186;-82
2022/06/26 12:43:44;;;;;;;0.50;0.50;;;27.80;99.90;;;;;;5058915;28;20210;-82
2022/06/26 12:46:10;;;;;;;0.50;0.50;;;27.90;99.90;;;;;;5058492;28;20213;-82
2022/06/26 12:48:36;;;;;;;0.60;0.60;;;27.90;99.90;;;;;;5037879;28;20687;-83
2022/06/26 12:51:01;;;;;;;0.47;0.47;;;27.80;99.90;;;;;;5036712;28;20196;-83
2022/06/26 12:53:27;;;;;;;0.60;0.60;;;27.80;99.90;;;;;;5038528;28;20802;-82
2022/06/26 12:55:53;;;;;;;0.57;0.57;;;28.00;99.90;;;;;;5035275;28;20174;-83
2022/06/26 12:58:19;;;;;;;0.30;0.30;;;28.00;99.90;;;;;;5036360;28;20197;-83
2022/06/26 13:00:45;;;;;;;0.33;0.30;;;28.20;99.90;;;;;;5035783;28;20555;-82